DAAT/TMR METAR and TAF weather

Enter ICAO airport designator
Station Type Date Time Source
DAAT METAR 2020/10/22 04:00 UTC NOAA

DAAT 220400Z 08007KT CAVOK 19/M07 Q1024


Station Type Date Time Source
DAAT Decoded METAR 2020/10/22 04:00 UTC NOAA

Tamanrasset / Aguenna, Algeria (DAAT) 22-49N 005-28E
Oct 22, 2020 - 12:00 AM EDT / 2020.10.22 0400 UTC
Wind: from the E (080 degrees) at 8 MPH (7 KT):0
Visibility: greater than 7 mile(s):0
Temperature: 66 F (19 C)
Dew Point: 19 F (-7 C)
Relative Humidity: 16%
Pressure (altimeter): 30.24 in. Hg (1024 hPa)
ob: DAAT 220400Z 08007KT CAVOK 19/M07 Q1024
cycle: 4

Station Type Date Time Source
DAAT TAF 2020/10/21 18:40 UTC NOAA

TAF DAAT 211700Z 2118/2218 12010KT CAVOK PROB30
TEMPO 2208/2212 14015G25KT 4000 DRSA PROB40
TEMPO 2212/2218 5000 -TSRA FEW040CB

Example: see airport list